Time,TemperatureF,DewpointF,PressureIn,WindDirection,WindDirectionDegrees,WindSpeedMPH,WindSpeedGustMPH,Humidity,HourlyPrecipIn,Conditions,Clouds,dailyrainin,SoftwareType,DateUTC
2013-03-23 00:00:00,31.7,20.9,29.92,West,277,2.0,4.0,64,0.00,,CLR,0.00,VWS V14.00,2013-03-23 04:00:00,
2013-03-23 00:05:00,31.7,20.9,29.92,West,271,0.0,2.0,64,0.00,,CLR,0.00,VWS V14.00,2013-03-23 04:05:00,
2013-03-23 00:10:00,31.8,21.4,29.92,WNW,292,1.0,1.0,65,0.00,,CLR,0.00,VWS V14.00,2013-03-23 04:10:00,
2013-03-23 00:15:00,31.7,21.3,29.92,West,276,0.0,0.0,65,0.00,,CLR,0.00,VWS V14.00,2013-03-23 04:15:00,
2013-03-23 00:20:00,31.8,21.4,29.92,WNW,303,1.0,3.0,65,0.00,,CLR,0.00,VWS V14.00,2013-03-23 04:20:00,
2013-03-23 00:25:00,31.8,21.4,29.92,West,268,0.0,2.0,65,0.00,,CLR,0.00,VWS V14.00,2013-03-23 04:25:00,
2013-03-23 00:30:00,31.8,21.4,29.92,NW,304,0.0,1.0,65,0.00,,CLR,0.00,VWS V14.00,2013-03-23 04:30:00,
2013-03-23 00:41:00,31.8,21.4,29.92,West,270,1.0,7.0,65,0.00,,CLR,0.00,VWS V14.00,2013-03-23 04:41:00,
2013-03-23 00:46:00,31.8,21.4,29.92,WNW,298,4.0,7.0,65,0.00,,CLR,0.00,VWS V14.00,2013-03-23 04:46:00,
2013-03-23 00:51:00,31.8,21.4,29.92,NW,311,3.0,6.0,65,0.00,,CLR,0.00,VWS V14.00,2013-03-23 04:51:00,
2013-03-23 00:56:00,31.8,21.4,29.92,WSW,252,5.0,5.0,65,0.00,,CLR,0.00,VWS V14.00,2013-03-23 04:56:00,
2013-03-23 01:01:00,31.9,21.5,29.92,WNW,289,1.0,5.0,65,0.00,,CLR,0.00,VWS V14.00,2013-03-23 05:01:00,
2013-03-23 01:06:00,31.9,21.5,29.92,WNW,283,1.0,3.0,65,0.00,,CLR,0.00,VWS V14.00,2013-03-23 05:06:00,
2013-03-23 01:11:00,32.0,21.6,29.92,WSW,242,1.0,5.0,65,0.00,,CLR,0.00,VWS V14.00,2013-03-23 05:11:00,
2013-03-23 01:16:00,32.0,21.2,29.93,NW,322,2.0,5.0,64,0.00,,CLR,0.00,VWS V14.00,2013-03-23 05:16:00,
2013-03-23 01:21:00,32.1,21.3,29.93,WNW,296,0.0,7.0,64,0.00,,CLR,0.00,VWS V14.00,2013-03-23 05:21:00,
2013-03-23 01:26:00,32.1,21.3,29.93,WNW,290,1.0,12.0,64,0.00,,CLR,0.00,VWS V14.00,2013-03-23 05:26:00,
2013-03-23 01:32:00,32.0,21.6,29.92,ENE,59,0.0,5.0,65,0.00,,CLR,0.00,VWS V14.00,2013-03-23 05:32:00,
2013-03-23 01:37:00,32.0,21.6,29.92,WNW,294,0.0,4.0,65,0.00,,CLR,0.00,VWS V14.00,2013-03-23 05:37:00,
2013-03-23 01:42:00,31.8,21.4,29.92,West,280,0.0,4.0,65,0.00,,CLR,0.00,VWS V14.00,2013-03-23 05:42:00,
2013-03-23 01:47:00,31.7,21.3,29.93,WNW,303,2.0,4.0,65,0.00,,CLR,0.00,VWS V14.00,2013-03-23 05:47:00,
2013-03-23 01:52:00,31.7,21.3,29.93,West,280,2.0,4.0,65,0.00,,CLR,0.00,VWS V14.00,2013-03-23 05:52:00,
2013-03-23 01:57:00,31.7,21.3,29.93,WSW,255,1.0,4.0,65,0.00,,CLR,0.00,VWS V14.00,2013-03-23 05:57:00,
2013-03-23 02:02:00,31.6,21.2,29.93,WNW,293,0.0,5.0,65,0.00,,CLR,0.00,VWS V14.00,2013-03-23 06:02:00,
2013-03-23 02:07:00,31.5,21.1,29.93,West,269,0.0,6.0,65,0.00,,CLR,0.00,VWS V14.00,2013-03-23 06:07:00,
2013-03-23 02:12:00,31.5,21.1,29.93,WNW,301,1.0,6.0,65,0.00,,CLR,0.00,VWS V14.00,2013-03-23 06:12:00,
2013-03-23 02:17:00,31.4,21.0,29.93,WSW,242,2.0,3.0,65,0.00,,CLR,0.00,VWS V14.00,2013-03-23 06:17:00,
2013-03-23 02:22:00,31.3,20.9,29.93,West,279,0.0,2.0,65,0.00,,CLR,0.00,VWS V14.00,2013-03-23 06:22:00,
2013-03-23 02:27:00,31.2,21.2,29.93,WSW,252,0.0,1.0,66,0.00,,CLR,0.00,VWS V14.00,2013-03-23 06:27:00,
2013-03-23 02:32:00,30.9,20.9,29.92,West,280,0.0,3.0,66,0.00,,CLR,0.00,VWS V14.00,2013-03-23 06:32:00,
2013-03-23 02:37:00,30.7,20.7,29.92,West,280,0.0,0.0,66,0.00,,CLR,0.00,VWS V14.00,2013-03-23 06:37:00,
2013-03-23 02:42:00,30.5,20.9,29.92,WNW,300,2.0,2.0,67,0.00,,CLR,0.00,VWS V14.00,2013-03-23 06:42:00,
2013-03-23 02:47:00,30.4,20.8,29.92,WNW,294,0.0,2.0,67,0.00,,CLR,0.00,VWS V14.00,2013-03-23 06:47:00,
2013-03-23 02:52:00,30.3,20.7,29.92,West,281,2.0,2.0,67,0.00,,CLR,0.00,VWS V14.00,2013-03-23 06:52:00,
2013-03-23 02:57:00,30.3,20.7,29.92,NW,325,3.0,4.0,67,0.00,,CLR,0.00,VWS V14.00,2013-03-23 06:57:00,
2013-03-23 03:02:00,30.3,20.7,29.92,WNW,290,1.0,3.0,67,0.00,,OVC039,0.00,VWS V14.00,2013-03-23 07:02:00,
2013-03-23 03:07:00,30.4,20.8,29.92,WNW,299,1.0,2.0,67,0.00,,OVC039,0.00,VWS V14.00,2013-03-23 07:07:00,
2013-03-23 03:12:00,30.3,20.7,29.92,WSW,254,2.0,5.0,67,0.00,,OVC039,0.00,VWS V14.00,2013-03-23 07:12:00,
2013-03-23 03:17:00,30.3,20.7,29.91,West,273,0.0,7.0,67,0.00,,OVC039,0.00,VWS V14.00,2013-03-23 07:17:00,
2013-03-23 03:22:00,30.2,20.6,29.91,West,278,0.0,1.0,67,0.00,,OVC039,0.00,VWS V14.00,2013-03-23 07:22:00,
2013-03-23 03:27:00,30.1,20.5,29.91,WNW,286,2.0,2.0,67,0.00,,OVC039,0.00,VWS V14.00,2013-03-23 07:27:00,
2013-03-23 03:32:00,29.9,20.6,29.91,WNW,296,0.0,0.0,68,0.00,,OVC039,0.00,VWS V14.00,2013-03-23 07:32:00,
2013-03-23 03:37:00,29.8,20.5,29.91,WNW,299,0.0,2.0,68,0.00,,OVC039,0.00,VWS V14.00,2013-03-23 07:37:00,
2013-03-23 03:42:00,29.8,20.5,29.91,WNW,283,0.0,3.0,68,0.00,,OVC039,0.00,VWS V14.00,2013-03-23 07:42:00,
2013-03-23 03:47:00,29.9,20.6,29.91,WNW,302,0.0,4.0,68,0.00,,OVC039,0.00,VWS V14.00,2013-03-23 07:47:00,
2013-03-23 03:52:00,30.1,20.5,29.91,NW,326,0.0,7.0,67,0.00,,OVC039,0.00,VWS V14.00,2013-03-23 07:52:00,
2013-03-23 03:57:00,30.3,20.7,29.91,NW,306,0.0,3.0,67,0.00,,SCT039,0.00,VWS V14.00,2013-03-23 07:57:00,
2013-03-23 04:02:00,30.6,21.0,29.91,West,281,2.0,2.0,67,0.00,,SCT039,0.00,VWS V14.00,2013-03-23 08:02:00,
2013-03-23 04:07:00,30.7,21.1,29.91,NW,317,2.0,3.0,67,0.00,,SCT039,0.00,VWS V14.00,2013-03-23 08:07:00,
2013-03-23 04:12:00,30.8,20.8,29.91,WNW,296,0.0,12.0,66,0.00,,SCT039,0.00,VWS V14.00,2013-03-23 08:12:00,
2013-03-23 04:17:00,30.8,20.8,29.91,South,190,4.0,7.0,66,0.00,,SCT039,0.00,VWS V14.00,2013-03-23 08:17:00,
2013-03-23 04:22:00,30.9,20.9,29.91,WNW,298,2.0,7.0,66,0.00,,SCT039,0.00,VWS V14.00,2013-03-23 08:22:00,
2013-03-23 04:27:00,31.0,21.0,29.91,West,272,4.0,10.0,66,0.00,,SCT039,0.00,VWS V14.00,2013-03-23 08:27:00,
2013-03-23 04:32:00,31.1,20.7,29.91,NNW,341,4.0,9.0,65,0.00,,SCT039,0.00,VWS V14.00,2013-03-23 08:32:00,
2013-03-23 04:37:00,31.2,20.8,29.91,West,279,1.0,3.0,65,0.00,,SCT039,0.00,VWS V14.00,2013-03-23 08:37:00,
2013-03-23 04:42:00,31.2,20.8,29.91,NW,315,3.0,5.0,65,0.00,,SCT039,0.00,VWS V14.00,2013-03-23 08:42:00,
2013-03-23 04:47:00,31.2,20.8,29.91,NW,304,0.0,4.0,65,0.00,,SCT039,0.00,VWS V14.00,2013-03-23 08:47:00,
2013-03-23 04:52:00,31.4,20.6,29.91,WNW,297,3.0,10.0,64,0.00,,SCT039,0.00,VWS V14.00,2013-03-23 08:52:00,
2013-03-23 04:57:00,31.4,20.6,29.91,WNW,291,5.0,15.0,64,0.00,,SCT039,0.00,VWS V14.00,2013-03-23 08:57:00,
2013-03-23 05:06:00,31.5,20.7,29.91,NW,315,4.0,11.0,64,0.00,,CLR,0.00,VWS V14.00,2013-03-23 09:06:00,
2013-03-23 05:11:00,31.6,20.8,29.91,NW,310,1.0,11.0,64,0.00,,CLR,0.00,VWS V14.00,2013-03-23 09:11:00,
2013-03-23 05:16:00,31.4,20.6,29.91,NNE,18,3.0,6.0,64,0.00,,CLR,0.00,VWS V14.00,2013-03-23 09:16:00,
2013-03-23 05:21:00,31.4,20.6,29.91,NW,307,3.0,4.0,64,0.00,,CLR,0.00,VWS V14.00,2013-03-23 09:21:00,
2013-03-23 05:26:00,31.4,20.6,29.91,NNW,342,0.0,2.0,64,0.00,,CLR,0.00,VWS V14.00,2013-03-23 09:26:00,
2013-03-23 05:31:00,31.3,20.5,29.92,WNW,300,9.0,10.0,64,0.00,,CLR,0.00,VWS V14.00,2013-03-23 09:31:00,
2013-03-23 05:36:00,31.2,20.5,29.92,NW,315,1.0,3.0,64,0.00,,CLR,0.00,VWS V14.00,2013-03-23 09:36:00,
2013-03-23 05:41:00,31.1,20.4,29.92,NW,325,1.0,3.0,64,0.00,,CLR,0.00,VWS V14.00,2013-03-23 09:41:00,
2013-03-23 05:46:00,31.1,20.4,29.92,WNW,291,2.0,6.0,64,0.00,,CLR,0.00,VWS V14.00,2013-03-23 09:46:00,
2013-03-23 05:52:00,31.2,20.5,29.92,WNW,287,1.0,4.0,64,0.00,,CLR,0.00,VWS V14.00,2013-03-23 09:52:00,
2013-03-23 05:57:00,31.0,20.6,29.92,West,280,4.0,6.0,65,0.00,,CLR,0.00,VWS V14.00,2013-03-23 09:57:00,
2013-03-23 06:02:00,31.0,20.6,29.93,WNW,289,3.0,6.0,65,0.00,,CLR,0.00,VWS V14.00,2013-03-23 10:02:00,
2013-03-23 06:07:00,30.8,20.4,29.93,West,278,2.0,6.0,65,0.00,,CLR,0.00,VWS V14.00,2013-03-23 10:07:00,
2013-03-23 06:12:00,30.7,20.7,29.93,WNW,299,0.0,3.0,66,0.00,,CLR,0.00,VWS V14.00,2013-03-23 10:12:00,
2013-03-23 06:17:00,30.7,20.7,29.93,WNW,288,1.0,3.0,66,0.00,,CLR,0.00,VWS V14.00,2013-03-23 10:17:00,
2013-03-23 06:22:00,30.7,20.3,29.93,WNW,303,3.0,4.0,65,0.00,,CLR,0.00,VWS V14.00,2013-03-23 10:22:00,
2013-03-23 06:27:00,30.8,20.4,29.93,NW,304,0.0,4.0,65,0.00,,CLR,0.00,VWS V14.00,2013-03-23 10:27:00,
2013-03-23 06:32:00,30.8,20.4,29.93,WNW,303,0.0,1.0,65,0.00,,CLR,0.00,VWS V14.00,2013-03-23 10:32:00,
2013-03-23 06:37:00,30.8,20.4,29.93,NW,325,1.0,2.0,65,0.00,,CLR,0.00,VWS V14.00,2013-03-23 10:37:00,
2013-03-23 06:42:00,30.7,20.3,29.93,WNW,284,1.0,3.0,65,0.00,,CLR,0.00,VWS V14.00,2013-03-23 10:42:00,
2013-03-23 06:47:00,30.6,20.2,29.93,WNW,292,1.0,2.0,65,0.00,,CLR,0.00,VWS V14.00,2013-03-23 10:47:00,
2013-03-23 06:52:00,30.5,20.5,29.93,WNW,300,0.0,4.0,66,0.00,,CLR,0.00,VWS V14.00,2013-03-23 10:52:00,
2013-03-23 06:57:00,30.5,20.1,29.93,WNW,303,2.0,3.0,65,0.00,,CLR,0.00,VWS V14.00,2013-03-23 10:57:00,
2013-03-23 07:02:00,30.5,20.5,29.93,WNW,299,0.0,4.0,66,0.00,,BKN040,0.00,VWS V14.00,2013-03-23 11:02:00,
2013-03-23 07:07:00,30.4,20.4,29.93,WNW,292,0.0,1.0,66,0.00,,BKN040,0.00,VWS V14.00,2013-03-23 11:07:00,
2013-03-23 07:12:00,30.3,20.3,29.93,West,275,0.0,4.0,66,0.00,,BKN040,0.00,VWS V14.00,2013-03-23 11:12:00,
2013-03-23 07:17:00,30.3,20.3,29.94,WNW,300,1.0,2.0,66,0.00,,BKN040,0.00,VWS V14.00,2013-03-23 11:17:00,
2013-03-23 07:22:00,30.5,20.5,29.94,WNW,290,0.0,4.0,66,0.00,,BKN040,0.00,VWS V14.00,2013-03-23 11:22:00,
2013-03-23 07:27:00,30.7,21.1,29.94,West,274,3.0,3.0,67,0.00,,BKN040,0.00,VWS V14.00,2013-03-23 11:27:00,
2013-03-23 07:32:00,30.8,20.8,29.93,WNW,294,0.0,4.0,66,0.00,,BKN040,0.00,VWS V14.00,2013-03-23 11:32:00,
2013-03-23 07:37:00,31.0,21.0,29.93,WSW,238,0.0,4.0,66,0.00,,BKN040,0.00,VWS V14.00,2013-03-23 11:37:00,
2013-03-23 07:42:00,31.2,21.2,29.93,NW,306,1.0,5.0,66,0.00,,BKN040,0.00,VWS V14.00,2013-03-23 11:42:00,
2013-03-23 07:47:00,31.4,21.4,29.94,West,279,0.0,4.0,66,0.00,,BKN040,0.00,VWS V14.00,2013-03-23 11:47:00,
2013-03-23 07:52:00,31.9,21.5,29.94,NW,319,3.0,5.0,65,0.00,,BKN040,0.00,VWS V14.00,2013-03-23 11:52:00,
2013-03-23 07:57:00,32.3,21.9,29.94,WNW,301,1.0,3.0,65,0.00,,BKN040,0.00,VWS V14.00,2013-03-23 11:57:00,
2013-03-23 08:02:00,32.7,21.9,29.94,West,267,3.0,4.0,64,0.00,,BKN038,0.00,VWS V14.00,2013-03-23 12:02:00,
2013-03-23 08:07:00,33.3,22.1,29.94,NNW,327,0.0,2.0,63,0.00,,BKN038,0.00,VWS V14.00,2013-03-23 12:07:00,
2013-03-23 08:12:00,33.9,22.3,29.94,NW,315,3.0,6.0,62,0.00,,BKN038,0.00,VWS V14.00,2013-03-23 12:12:00,
2013-03-23 08:17:00,34.1,22.1,29.94,WNW,302,2.0,10.0,61,0.00,,BKN038,0.00,VWS V14.00,2013-03-23 12:17:00,
2013-03-23 08:22:00,34.4,22.7,29.94,WNW,285,2.0,5.0,62,0.00,,BKN038,0.00,VWS V14.00,2013-03-23 12:22:00,
2013-03-23 08:27:00,34.4,22.4,29.94,West,267,0.0,6.0,61,0.00,,BKN038,0.00,VWS V14.00,2013-03-23 12:27:00,
2013-03-23 08:32:00,34.4,22.4,29.94,WNW,286,5.0,8.0,61,0.00,,BKN038,0.00,VWS V14.00,2013-03-23 12:32:00,
2013-03-23 08:37:00,34.4,22.4,29.94,WNW,300,4.0,7.0,61,0.00,,BKN038,0.00,VWS V14.00,2013-03-23 12:37:00,
2013-03-23 08:42:00,34.4,22.4,29.94,WNW,302,5.0,10.0,61,0.00,,BKN038,0.00,VWS V14.00,2013-03-23 12:42:00,
2013-03-23 08:47:00,34.8,22.7,29.94,WSW,248,5.0,10.0,61,0.00,,BKN038,0.00,VWS V14.00,2013-03-23 12:47:00,
2013-03-23 08:53:00,35.0,22.9,29.94,WNW,301,4.0,10.0,61,0.00,,BKN038,0.00,VWS V14.00,2013-03-23 12:53:00,
2013-03-23 08:58:00,35.4,22.9,29.94,West,270,4.0,7.0,60,0.00,,BKN038,0.00,VWS V14.00,2013-03-23 12:58:00,
2013-03-23 09:03:00,35.9,23.0,29.93,NNW,342,4.0,6.0,59,0.00,,CLR,0.00,VWS V14.00,2013-03-23 13:03:00,
2013-03-23 09:08:00,36.4,23.0,29.93,WNW,296,4.0,7.0,58,0.00,,CLR,0.00,VWS V14.00,2013-03-23 13:08:00,
2013-03-23 09:13:00,36.5,23.1,29.93,WNW,297,1.0,9.0,58,0.00,,CLR,0.00,VWS V14.00,2013-03-23 13:13:00,
2013-03-23 09:18:00,36.9,23.5,29.93,NNW,330,7.0,8.0,58,0.00,,CLR,0.00,VWS V14.00,2013-03-23 13:18:00,
2013-03-23 09:23:00,37.3,23.5,29.93,North,360,6.0,11.0,57,0.00,,CLR,0.00,VWS V14.00,2013-03-23 13:23:00,
2013-03-23 09:28:00,37.3,23.1,29.93,NW,315,3.0,11.0,56,0.00,,CLR,0.00,VWS V14.00,2013-03-23 13:28:00,
2013-03-23 09:33:00,38.2,24.3,29.93,NNW,328,3.0,4.0,57,0.00,,CLR,0.00,VWS V14.00,2013-03-23 13:33:00,
2013-03-23 09:38:00,38.3,23.6,29.93,West,271,4.0,11.0,55,0.00,,CLR,0.00,VWS V14.00,2013-03-23 13:38:00,
2013-03-23 09:43:00,38.3,23.6,29.93,NW,311,8.0,10.0,55,0.00,,CLR,0.00,VWS V14.00,2013-03-23 13:43:00,
2013-03-23 09:48:00,38.7,23.9,29.92,WSW,252,5.0,12.0,55,0.00,,CLR,0.00,VWS V14.00,2013-03-23 13:48:00,
2013-03-23 09:53:00,39.4,24.6,29.92,WNW,286,2.0,7.0,55,0.00,,CLR,0.00,VWS V14.00,2013-03-23 13:53:00,
2013-03-23 09:58:00,39.8,23.6,29.92,WNW,288,1.0,16.0,52,0.00,,CLR,0.00,VWS V14.00,2013-03-23 13:58:00,
2013-03-23 10:03:00,39.6,23.9,29.92,WNW,287,2.0,8.0,53,0.00,,CLR,0.00,VWS V14.00,2013-03-23 14:03:00,
2013-03-23 10:08:00,39.3,24.1,29.92,WSW,243,6.0,10.0,54,0.00,,CLR,0.00,VWS V14.00,2013-03-23 14:08:00,
2013-03-23 10:13:00,39.4,23.7,29.92,WNW,297,5.0,12.0,53,0.00,,CLR,0.00,VWS V14.00,2013-03-23 14:13:00,
2013-03-23 10:18:00,39.4,23.7,29.93,NW,307,3.0,12.0,53,0.00,,CLR,0.00,VWS V14.00,2013-03-23 14:18:00,
2013-03-23 10:23:00,39.5,23.8,29.93,NW,313,5.0,8.0,53,0.00,,CLR,0.00,VWS V14.00,2013-03-23 14:23:00,
2013-03-23 10:28:00,39.6,24.3,29.93,North,349,2.0,12.0,54,0.00,,CLR,0.00,VWS V14.00,2013-03-23 14:28:00,
2013-03-23 10:33:00,39.8,23.6,29.92,NW,307,5.0,10.0,52,0.00,,CLR,0.00,VWS V14.00,2013-03-23 14:33:00,
2013-03-23 10:38:00,40.0,24.3,29.92,WNW,286,4.0,10.0,53,0.00,,CLR,0.00,VWS V14.00,2013-03-23 14:38:00,
2013-03-23 10:43:00,40.5,24.3,29.92,WNW,294,3.0,9.0,52,0.00,,CLR,0.00,VWS V14.00,2013-03-23 14:43:00,
2013-03-23 10:48:00,40.9,24.6,29.92,NW,309,2.0,7.0,52,0.00,,CLR,0.00,VWS V14.00,2013-03-23 14:48:00,
2013-03-23 10:53:00,41.5,24.3,29.92,NW,322,5.0,11.0,50,0.00,,CLR,0.00,VWS V14.00,2013-03-23 14:53:00,
2013-03-23 10:58:00,41.7,24.0,29.92,WNW,296,5.0,11.0,49,0.00,,CLR,0.00,VWS V14.00,2013-03-23 14:58:00,
2013-03-23 11:06:00,42.9,26.0,29.92,West,270,2.0,7.0,51,0.00,,CLR,0.00,VWS V14.00,2013-03-23 15:06:00,
2013-03-23 11:11:00,43.6,25.2,29.92,WNW,294,2.0,7.0,48,0.00,,CLR,0.00,VWS V14.00,2013-03-23 15:11:00,
2013-03-23 11:16:00,44.1,25.2,29.92,West,275,7.0,13.0,47,0.00,,CLR,0.00,VWS V14.00,2013-03-23 15:16:00,
2013-03-23 11:21:00,43.8,24.4,29.92,West,260,12.0,15.0,46,0.00,,CLR,0.00,VWS V14.00,2013-03-23 15:21:00,
2013-03-23 11:26:00,43.4,24.5,29.92,WNW,291,5.0,12.0,47,0.00,,CLR,0.00,VWS V14.00,2013-03-23 15:26:00,
2013-03-23 11:31:00,43.8,24.9,29.92,NNE,22,4.0,10.0,47,0.00,,CLR,0.00,VWS V14.00,2013-03-23 15:31:00,
2013-03-23 11:36:00,43.9,25.0,29.92,NW,310,0.0,6.0,47,0.00,,CLR,0.00,VWS V14.00,2013-03-23 15:36:00,
2013-03-23 11:41:00,43.7,24.3,29.92,WSW,256,6.0,10.0,46,0.00,,CLR,0.00,VWS V14.00,2013-03-23 15:41:00,
2013-03-23 11:47:00,44.6,25.6,29.92,NW,319,3.0,7.0,47,0.00,,CLR,0.00,VWS V14.00,2013-03-23 15:47:00,
2013-03-23 11:52:00,44.2,24.8,29.92,WNW,294,3.0,9.0,46,0.00,,CLR,0.00,VWS V14.00,2013-03-23 15:52:00,
2013-03-23 11:57:00,44.4,24.9,29.92,West,275,9.0,14.0,46,0.00,,CLR,0.00,VWS V14.00,2013-03-23 15:57:00,
2013-03-23 12:02:00,44.7,24.7,29.91,NW,312,4.0,7.0,45,0.00,,SCT050,0.00,VWS V14.00,2013-03-23 16:02:00,
2013-03-23 12:07:00,44.2,24.8,29.91,North,360,7.0,14.0,46,0.00,,SCT050,0.00,VWS V14.00,2013-03-23 16:07:00,
2013-03-23 12:12:00,44.0,24.6,29.91,North,360,3.0,7.0,46,0.00,,SCT050,0.00,VWS V14.00,2013-03-23 16:12:00,
2013-03-23 12:17:00,44.6,25.6,29.91,SSE,157,2.0,6.0,47,0.00,,SCT050,0.00,VWS V14.00,2013-03-23 16:17:00,
2013-03-23 12:22:00,45.0,25.0,29.91,North,350,3.0,11.0,45,0.00,,SCT050,0.00,VWS V14.00,2013-03-23 16:22:00,
2013-03-23 12:27:00,44.6,25.1,29.91,NW,307,4.0,7.0,46,0.00,,SCT050,0.00,VWS V14.00,2013-03-23 16:27:00,
2013-03-23 12:32:00,45.2,25.1,29.90,West,281,3.0,11.0,45,0.00,,SCT050,0.00,VWS V14.00,2013-03-23 16:32:00,
2013-03-23 12:37:00,45.4,24.8,29.90,WSW,254,4.0,10.0,44,0.00,,SCT050,0.00,VWS V14.00,2013-03-23 16:37:00,
2013-03-23 12:42:00,45.0,25.0,29.90,NNW,337,4.0,6.0,45,0.00,,SCT050,0.00,VWS V14.00,2013-03-23 16:42:00,
2013-03-23 12:47:00,45.0,25.5,29.90,WNW,300,2.0,7.0,46,0.00,,SCT050,0.00,VWS V14.00,2013-03-23 16:47:00,
2013-03-23 12:52:00,44.7,24.7,29.90,NNE,30,5.0,11.0,45,0.00,,SCT050,0.00,VWS V14.00,2013-03-23 16:52:00,
2013-03-23 12:57:00,44.9,23.8,29.90,WNW,286,5.0,9.0,43,0.00,,SCT050,0.00,VWS V14.00,2013-03-23 16:57:00,
2013-03-23 13:02:00,45.1,24.5,29.89,NW,313,5.0,14.0,44,0.00,,BKN050,0.00,VWS V14.00,2013-03-23 17:02:00,
2013-03-23 13:07:00,45.5,24.9,29.89,NW,314,4.0,10.0,44,0.00,,BKN050,0.00,VWS V14.00,2013-03-23 17:07:00,
2013-03-23 13:12:00,45.7,25.0,29.89,NNW,329,5.0,11.0,44,0.00,,BKN050,0.00,VWS V14.00,2013-03-23 17:12:00,
2013-03-23 13:17:00,45.6,25.0,29.89,WNW,285,3.0,9.0,44,0.00,,BKN050,0.00,VWS V14.00,2013-03-23 17:17:00,
2013-03-23 13:22:00,46.1,24.9,29.89,NNE,26,3.0,10.0,43,0.00,,BKN050,0.00,VWS V14.00,2013-03-23 17:22:00,
2013-03-23 13:27:00,46.7,25.4,29.89,SW,221,4.0,5.0,43,0.00,,BKN050,0.00,VWS V14.00,2013-03-23 17:27:00,
2013-03-23 13:32:00,47.4,26.0,29.89,NNW,336,6.0,8.0,43,0.00,,BKN050,0.00,VWS V14.00,2013-03-23 17:32:00,
2013-03-23 13:37:00,47.0,25.1,29.89,WNW,300,4.0,13.0,42,0.00,,BKN050,0.00,VWS V14.00,2013-03-23 17:37:00,
2013-03-23 13:42:00,47.2,25.3,29.89,NW,313,7.0,13.0,42,0.00,,BKN050,0.00,VWS V14.00,2013-03-23 17:42:00,
2013-03-23 13:47:00,47.6,24.5,29.88,WSW,254,15.0,17.0,40,0.00,,BKN050,0.00,VWS V14.00,2013-03-23 17:47:00,
2013-03-23 13:52:00,47.1,24.6,29.88,WNW,292,5.0,10.0,41,0.00,,BKN050,0.00,VWS V14.00,2013-03-23 17:52:00,
2013-03-23 14:00:00,47.3,24.2,29.87,WNW,303,8.0,19.0,40,0.00,,BKN050,0.00,VWS V14.00,2013-03-23 18:00:00,
2013-03-23 14:05:00,47.3,24.8,29.87,WNW,299,4.0,16.0,41,0.00,,BKN050,0.00,VWS V14.00,2013-03-23 18:05:00,
2013-03-23 14:10:00,47.4,25.5,29.87,NW,306,5.0,16.0,42,0.00,,BKN050,0.00,VWS V14.00,2013-03-23 18:10:00,
2013-03-23 14:15:00,47.8,25.8,29.87,WNW,282,11.0,15.0,42,0.00,,BKN050,0.00,VWS V14.00,2013-03-23 18:15:00,
2013-03-23 14:20:00,48.1,25.5,29.87,WNW,284,1.0,12.0,41,0.00,,BKN050,0.00,VWS V14.00,2013-03-23 18:20:00,
2013-03-23 14:25:00,48.7,25.5,29.87,NNW,336,5.0,10.0,40,0.00,,BKN050,0.00,VWS V14.00,2013-03-23 18:25:00,
2013-03-23 14:30:00,48.5,24.7,29.86,NW,319,6.0,11.0,39,0.00,,BKN050,0.00,VWS V14.00,2013-03-23 18:30:00,
2013-03-23 14:35:00,48.0,24.9,29.86,NW,317,4.0,12.0,40,0.00,,BKN050,0.00,VWS V14.00,2013-03-23 18:35:00,
2013-03-23 14:40:00,48.4,25.8,29.86,SE,145,2.0,13.0,41,0.00,,BKN050,0.00,VWS V14.00,2013-03-23 18:40:00,
2013-03-23 14:45:00,49.0,25.1,29.86,NW,313,5.0,17.0,39,0.00,,BKN050,0.00,VWS V14.00,2013-03-23 18:45:00,
2013-03-23 14:50:00,48.8,26.2,29.86,NW,307,6.0,13.0,41,0.00,,BKN050,0.00,VWS V14.00,2013-03-23 18:50:00,
2013-03-23 14:55:00,48.4,25.2,29.86,NW,306,5.0,10.0,40,0.00,,BKN050,0.00,VWS V14.00,2013-03-23 18:55:00,
2013-03-23 15:06:00,48.5,25.3,29.86,NNW,338,5.0,12.0,40,0.00,,BKN050,0.00,VWS V14.00,2013-03-23 19:06:00,
2013-03-23 15:11:00,48.8,26.2,29.86,NNW,348,2.0,9.0,41,0.00,,SCT060,0.00,VWS V14.00,2013-03-23 19:11:00,
2013-03-23 15:16:00,48.9,25.7,29.86,SW,234,1.0,11.0,40,0.00,,SCT060,0.00,VWS V14.00,2013-03-23 19:16:00,
2013-03-23 15:21:00,49.2,26.5,29.86,NW,317,3.0,6.0,41,0.00,,SCT060,0.00,VWS V14.00,2013-03-23 19:21:00,
2013-03-23 15:26:00,49.3,24.8,29.86,NNW,330,5.0,10.0,38,0.00,,SCT060,0.00,VWS V14.00,2013-03-23 19:26:00,
2013-03-23 15:31:00,49.5,25.6,29.85,WNW,302,2.0,11.0,39,0.00,,SCT060,0.00,VWS V14.00,2013-03-23 19:31:00,
2013-03-23 15:36:00,49.7,25.8,29.85,North,5,3.0,4.0,39,0.00,,SCT060,0.00,VWS V14.00,2013-03-23 19:36:00,
2013-03-23 15:41:00,49.2,24.7,29.85,NNW,341,5.0,14.0,38,0.00,,SCT060,0.00,VWS V14.00,2013-03-23 19:41:00,
2013-03-23 15:46:00,48.7,25.5,29.86,NNW,344,3.0,9.0,40,0.00,,SCT060,0.00,VWS V14.00,2013-03-23 19:46:00,
2013-03-23 15:51:00,49.2,26.5,29.86,North,5,10.0,11.0,41,0.00,,SCT060,0.00,VWS V14.00,2013-03-23 19:51:00,
2013-03-23 15:56:00,49.4,25.5,29.86,NNW,340,7.0,12.0,39,0.00,,SCT060,0.00,VWS V14.00,2013-03-23 19:56:00,
2013-03-23 16:01:00,49.5,25.6,29.85,NW,323,3.0,9.0,39,0.00,,BKN060,0.00,VWS V14.00,2013-03-23 20:01:00,
2013-03-23 16:06:00,49.2,24.7,29.85,WNW,292,9.0,12.0,38,0.00,,BKN060,0.00,VWS V14.00,2013-03-23 20:06:00,
2013-03-23 16:12:00,48.9,25.0,29.85,NNW,327,10.0,10.0,39,0.00,,BKN060,0.00,VWS V14.00,2013-03-23 20:12:00,
2013-03-23 16:17:00,48.7,25.5,29.85,WNW,299,6.0,12.0,40,0.00,,BKN060,0.00,VWS V14.00,2013-03-23 20:17:00,
2013-03-23 16:22:00,47.9,24.1,29.85,NNW,327,3.0,15.0,39,0.00,,BKN060,0.00,VWS V14.00,2013-03-23 20:22:00,
2013-03-23 16:27:00,48.0,24.9,29.85,WSW,251,3.0,11.0,40,0.00,,BKN060,0.00,VWS V14.00,2013-03-23 20:27:00,
2013-03-23 16:32:00,48.5,25.3,29.86,NW,304,5.0,9.0,40,0.00,,BKN060,0.00,VWS V14.00,2013-03-23 20:32:00,
2013-03-23 16:37:00,49.0,25.1,29.86,WSW,253,5.0,9.0,39,0.00,,BKN060,0.00,VWS V14.00,2013-03-23 20:37:00,
2013-03-23 16:42:00,48.9,25.0,29.86,SW,236,3.0,13.0,39,0.00,,BKN060,0.00,VWS V14.00,2013-03-23 20:42:00,
2013-03-23 16:47:00,48.7,24.2,29.85,NW,314,10.0,14.0,38,0.00,,BKN060,0.00,VWS V14.00,2013-03-23 20:47:00,
2013-03-23 16:52:00,48.0,23.6,29.85,NW,310,4.0,8.0,38,0.00,,BKN060,0.00,VWS V14.00,2013-03-23 20:52:00,
2013-03-23 16:57:00,47.7,23.4,29.85,NW,317,11.0,15.0,38,0.00,,BKN060,0.00,VWS V14.00,2013-03-23 20:57:00,
2013-03-23 17:02:00,47.3,23.6,29.86,WNW,294,1.0,9.0,39,0.00,,BKN060,0.00,VWS V14.00,2013-03-23 21:02:00,
2013-03-23 17:07:00,47.4,23.7,29.86,NNW,338,5.0,11.0,39,0.00,,BKN060,0.00,VWS V14.00,2013-03-23 21:07:00,
2013-03-23 17:12:00,47.2,23.5,29.86,NNW,339,7.0,10.0,39,0.00,,BKN060,0.00,VWS V14.00,2013-03-23 21:12:00,
2013-03-23 17:17:00,47.0,23.3,29.86,South,171,0.0,11.0,39,0.00,,BKN060,0.00,VWS V14.00,2013-03-23 21:17:00,
2013-03-23 17:22:00,46.5,22.9,29.86,WNW,282,3.0,10.0,39,0.00,,BKN060,0.00,VWS V14.00,2013-03-23 21:22:00,
2013-03-23 17:27:00,45.8,22.9,29.86,WNW,283,5.0,13.0,40,0.00,,BKN060,0.00,VWS V14.00,2013-03-23 21:27:00,
2013-03-23 17:32:00,45.6,22.7,29.86,WNW,296,10.0,12.0,40,0.00,,BKN060,0.00,VWS V14.00,2013-03-23 21:32:00,
2013-03-23 17:37:00,45.7,23.4,29.86,NW,318,6.0,6.0,41,0.00,,BKN060,0.00,VWS V14.00,2013-03-23 21:37:00,
2013-03-23 17:45:00,45.6,23.3,29.86,West,263,2.0,17.0,41,0.00,,BKN060,0.00,VWS V14.00,2013-03-23 21:45:00,
2013-03-23 17:50:00,45.4,22.5,29.86,WNW,300,6.0,13.0,40,0.00,,BKN060,0.00,VWS V14.00,2013-03-23 21:50:00,
2013-03-23 17:55:00,45.2,22.9,29.86,WNW,286,3.0,12.0,41,0.00,,BKN060,0.00,VWS V14.00,2013-03-23 21:55:00,
2013-03-23 18:00:00,45.1,22.2,29.86,NW,322,6.0,12.0,40,0.00,,BKN060,0.00,VWS V14.00,2013-03-23 22:00:00,
2013-03-23 18:05:00,44.9,22.6,29.86,NW,326,4.0,18.0,41,0.00,,BKN060,0.00,VWS V14.00,2013-03-23 22:05:00,
2013-03-23 18:10:00,44.6,22.4,29.86,NNW,327,3.0,12.0,41,0.00,,BKN060,0.00,VWS V14.00,2013-03-23 22:10:00,
2013-03-23 18:15:00,44.5,22.3,29.87,NW,313,4.0,12.0,41,0.00,,BKN060,0.00,VWS V14.00,2013-03-23 22:15:00,
2013-03-23 18:20:00,44.4,22.8,29.87,NW,318,3.0,11.0,42,0.00,,BKN060,0.00,VWS V14.00,2013-03-23 22:20:00,
2013-03-23 18:25:00,44.2,22.6,29.87,WNW,299,3.0,14.0,42,0.00,,BKN060,0.00,VWS V14.00,2013-03-23 22:25:00,
2013-03-23 18:30:00,44.1,21.9,29.88,NNW,329,2.0,12.0,41,0.00,,BKN060,0.00,VWS V14.00,2013-03-23 22:30:00,
2013-03-23 18:40:00,44.0,22.4,29.88,NW,315,5.0,15.0,42,0.00,,BKN060,0.00,VWS V14.00,2013-03-23 22:40:00,
2013-03-23 18:45:00,43.7,21.6,29.89,WNW,295,2.0,12.0,41,0.00,,CLR,0.00,VWS V14.00,2013-03-23 22:45:00,
2013-03-23 18:55:00,43.4,21.9,29.89,West,276,7.0,13.0,42,0.00,,CLR,0.00,VWS V14.00,2013-03-23 22:55:00,
2013-03-23 19:00:00,43.2,21.7,29.89,NNW,344,6.0,16.0,42,0.00,,CLR,0.00,VWS V14.00,2013-03-23 23:00:00,
2013-03-23 19:05:00,43.0,22.0,29.89,WNW,290,0.0,9.0,43,0.00,,CLR,0.00,VWS V14.00,2013-03-23 23:05:00,
2013-03-23 19:10:00,42.7,21.8,29.89,West,274,4.0,7.0,43,0.00,,CLR,0.00,VWS V14.00,2013-03-23 23:10:00,
2013-03-23 19:15:00,42.5,22.1,29.89,NNW,333,1.0,11.0,44,0.00,,CLR,0.00,VWS V14.00,2013-03-23 23:15:00,
2013-03-23 19:20:00,42.4,22.0,29.89,North,351,3.0,8.0,44,0.00,,CLR,0.00,VWS V14.00,2013-03-23 23:20:00,
2013-03-23 19:32:00,42.1,22.3,29.90,NNW,338,2.0,7.0,45,0.00,,CLR,0.00,VWS V14.00,2013-03-23 23:32:00,
2013-03-23 19:37:00,41.9,21.6,29.90,NW,309,2.0,4.0,44,0.00,,CLR,0.00,VWS V14.00,2013-03-23 23:37:00,
2013-03-23 19:42:00,41.8,22.0,29.90,NW,315,3.0,9.0,45,0.00,,CLR,0.00,VWS V14.00,2013-03-23 23:42:00,
2013-03-23 19:47:00,41.7,21.9,29.91,WSW,257,10.0,13.0,45,0.00,,CLR,0.00,VWS V14.00,2013-03-23 23:47:00,
2013-03-23 19:52:00,41.6,21.9,29.91,WNW,292,1.0,7.0,45,0.00,,CLR,0.00,VWS V14.00,2013-03-23 23:52:00,
2013-03-23 19:57:00,41.4,21.7,29.91,NW,309,4.0,4.0,45,0.00,,CLR,0.00,VWS V14.00,2013-03-23 23:57:00,
2013-03-23 20:06:00,41.2,22.0,29.91,NW,315,3.0,9.0,46,0.00,,CLR,0.00,VWS V14.00,2013-03-24 00:06:00,
2013-03-23 20:11:00,41.0,21.8,29.91,North,9,1.0,2.0,46,0.00,,FEW060,0.00,VWS V14.00,2013-03-24 00:11:00,
2013-03-23 20:16:00,40.8,22.1,29.92,NNW,327,1.0,3.0,47,0.00,,FEW060,0.00,VWS V14.00,2013-03-24 00:16:00,
2013-03-23 20:21:00,40.6,22.0,29.92,WNW,294,1.0,3.0,47,0.00,,FEW060,0.00,VWS V14.00,2013-03-24 00:21:00,
2013-03-23 20:27:00,40.5,21.9,29.92,NNW,341,3.0,3.0,47,0.00,,FEW060,0.00,VWS V14.00,2013-03-24 00:27:00,
2013-03-23 20:32:00,40.4,21.8,29.92,NW,321,0.0,4.0,47,0.00,,FEW060,0.00,VWS V14.00,2013-03-24 00:32:00,
2013-03-23 20:37:00,40.3,21.7,29.92,WNW,300,1.0,4.0,47,0.00,,FEW060,0.00,VWS V14.00,2013-03-24 00:37:00,
2013-03-23 20:42:00,40.2,21.6,29.92,WNW,289,0.0,3.0,47,0.00,,FEW060,0.00,VWS V14.00,2013-03-24 00:42:00,
2013-03-23 20:47:00,40.0,21.9,29.91,NNE,28,2.0,4.0,48,0.00,,FEW060,0.00,VWS V14.00,2013-03-24 00:47:00,
2013-03-23 20:52:00,39.8,21.7,29.91,North,355,0.0,0.0,48,0.00,,FEW060,0.00,VWS V14.00,2013-03-24 00:52:00,
2013-03-23 20:57:00,39.6,21.5,29.91,NNW,329,3.0,3.0,48,0.00,,FEW060,0.00,VWS V14.00,2013-03-24 00:57:00,
2013-03-23 21:02:00,39.5,21.5,29.92,WNW,300,2.0,3.0,48,0.00,,CLR,0.00,VWS V14.00,2013-03-24 01:02:00,
2013-03-23 21:07:00,39.5,21.5,29.92,NNW,346,0.0,5.0,48,0.00,,CLR,0.00,VWS V14.00,2013-03-24 01:07:00,
2013-03-23 21:12:00,39.6,21.5,29.92,NW,325,2.0,6.0,48,0.00,,CLR,0.00,VWS V14.00,2013-03-24 01:12:00,
2013-03-23 21:17:00,39.7,21.6,29.92,NNW,334,2.0,3.0,48,0.00,,CLR,0.00,VWS V14.00,2013-03-24 01:17:00,
2013-03-23 21:22:00,39.5,21.5,29.92,NNW,336,1.0,7.0,48,0.00,,CLR,0.00,VWS V14.00,2013-03-24 01:22:00,
2013-03-23 21:27:00,39.3,21.8,29.92,North,360,0.0,3.0,49,0.00,,CLR,0.00,VWS V14.00,2013-03-24 01:27:00,
2013-03-23 21:32:00,39.2,21.7,29.93,NW,323,0.0,6.0,49,0.00,,CLR,0.00,VWS V14.00,2013-03-24 01:32:00,
2013-03-23 21:37:00,39.1,21.6,29.93,NW,316,3.0,3.0,49,0.00,,CLR,0.00,VWS V14.00,2013-03-24 01:37:00,
2013-03-23 21:42:00,38.9,21.4,29.93,WNW,299,7.0,7.0,49,0.00,,CLR,0.00,VWS V14.00,2013-03-24 01:42:00,
2013-03-23 21:47:00,38.8,21.3,29.93,North,355,1.0,2.0,49,0.00,,CLR,0.00,VWS V14.00,2013-03-24 01:47:00,
2013-03-23 21:52:00,38.7,21.7,29.93,NW,322,0.0,3.0,50,0.00,,CLR,0.00,VWS V14.00,2013-03-24 01:52:00,
2013-03-23 21:57:00,38.6,21.6,29.93,NW,315,0.0,2.0,50,0.00,,CLR,0.00,VWS V14.00,2013-03-24 01:57:00,
2013-03-23 22:02:00,38.4,21.4,29.93,NNW,344,5.0,5.0,50,0.00,,CLR,0.00,VWS V14.00,2013-03-24 02:02:00,
2013-03-23 22:07:00,38.3,21.3,29.93,NW,322,0.0,3.0,50,0.00,,CLR,0.00,VWS V14.00,2013-03-24 02:07:00,
2013-03-23 22:12:00,38.1,21.6,29.93,NW,322,0.0,1.0,51,0.00,,CLR,0.00,VWS V14.00,2013-03-24 02:12:00,
2013-03-23 22:17:00,37.9,21.4,29.94,WNW,290,0.0,4.0,51,0.00,,CLR,0.00,VWS V14.00,2013-03-24 02:17:00,
2013-03-23 22:22:00,37.7,21.7,29.94,NW,325,0.0,1.0,52,0.00,,CLR,0.00,VWS V14.00,2013-03-24 02:22:00,
2013-03-23 22:27:00,37.4,21.4,29.94,NW,325,0.0,1.0,52,0.00,,CLR,0.00,VWS V14.00,2013-03-24 02:27:00,
2013-03-23 22:32:00,37.0,21.5,29.94,North,360,1.0,4.0,53,0.00,,CLR,0.00,VWS V14.00,2013-03-24 02:32:00,
2013-03-23 22:37:00,36.8,21.3,29.94,NNW,343,0.0,2.0,53,0.00,,CLR,0.00,VWS V14.00,2013-03-24 02:37:00,
2013-03-23 22:42:00,36.6,21.1,29.94,North,355,0.0,3.0,53,0.00,,CLR,0.00,VWS V14.00,2013-03-24 02:42:00,
2013-03-23 22:47:00,36.5,21.5,29.94,NW,309,0.0,5.0,54,0.00,,CLR,0.00,VWS V14.00,2013-03-24 02:47:00,
2013-03-23 22:52:00,36.5,22.7,29.94,ENE,63,1.0,2.0,57,0.00,,CLR,0.00,VWS V14.00,2013-03-24 02:52:00,
2013-03-23 22:57:00,36.3,21.3,29.94,ENE,63,0.0,2.0,54,0.00,,CLR,0.00,VWS V14.00,2013-03-24 02:57:00,
2013-03-23 23:02:00,36.2,21.6,29.94,ENE,63,0.0,0.0,55,0.00,,CLR,0.00,VWS V14.00,2013-03-24 03:02:00,
2013-03-23 23:07:00,35.9,21.3,29.94,ENE,63,0.0,0.0,55,0.00,,CLR,0.00,VWS V14.00,2013-03-24 03:07:00,
2013-03-23 23:12:00,35.6,21.0,29.94,ENE,63,0.0,0.0,55,0.00,,CLR,0.00,VWS V14.00,2013-03-24 03:12:00,
2013-03-23 23:17:00,35.3,21.2,29.95,ENE,63,0.0,0.0,56,0.00,,CLR,0.00,VWS V14.00,2013-03-24 03:17:00,
2013-03-23 23:22:00,35.0,21.3,29.95,ENE,64,0.0,2.0,57,0.00,,CLR,0.00,VWS V14.00,2013-03-24 03:22:00,
2013-03-23 23:27:00,34.5,21.3,29.95,ENE,63,0.0,2.0,58,0.00,,CLR,0.00,VWS V14.00,2013-03-24 03:27:00,
2013-03-23 23:32:00,34.4,21.2,29.95,ENE,63,0.0,0.0,58,0.00,,CLR,0.00,VWS V14.00,2013-03-24 03:32:00,
2013-03-23 23:37:00,34.4,20.8,29.95,WNW,303,1.0,3.0,57,0.00,,CLR,0.00,VWS V14.00,2013-03-24 03:37:00,
2013-03-23 23:42:00,34.7,20.6,29.95,NNW,331,2.0,5.0,56,0.00,,CLR,0.00,VWS V14.00,2013-03-24 03:42:00,
2013-03-23 23:47:00,35.0,20.9,29.94,NNW,338,2.0,3.0,56,0.00,,CLR,0.00,VWS V14.00,2013-03-24 03:47:00,
2013-03-23 23:52:00,35.5,20.5,29.94,WNW,289,1.0,3.0,54,0.00,,CLR,0.00,VWS V14.00,2013-03-24 03:52:00,
2013-03-23 23:57:00,35.8,20.8,29.94,North,355,0.0,2.0,54,0.00,,CLR,0.00,VWS V14.00,2013-03-24 03:57:00,